Time;durP1;ratioP1;P1;durP2;ratioP2;P2;SDS_P1;SDS_P2;PMS_P1;PMS_P2;Temp;Humidity;BMP_temperature;BMP_pressure;BME280_temperature;BME280_humidity;BME280_pressure;Samples;Min_cycle;Max_cycle;Signal;HPM_P1;HPM_P2
2021/11/22 00:01:51;;;;;;;;;;;;;;;6.10;86.59;100328.23;1649843;86;21833;-73
2021/11/22 00:04:17;;;;;;;;;;;;;;;6.06;86.59;100332.14;1653363;85;20208;-73
2021/11/22 00:06:43;;;;;;;;;;;;;;;6.02;86.58;100336.05;1659379;84;20174;-73
2021/11/22 00:09:09;;;;;;;;;;;;;;;6.03;86.59;100340.38;1654917;86;20204;-73
2021/11/22 00:11:35;;;;;;;;;;;;;;;5.99;86.59;100344.27;1662219;86;20780;-72
2021/11/22 00:14:00;;;;;;;;;;;;;;;5.97;86.58;100348.89;1650673;86;21205;-73
2021/11/22 00:16:26;;;;;;;;;;;;;;;5.92;86.56;100348.46;1650390;86;20200;-73
2021/11/22 00:18:52;;;;;;;;;;;;;;;5.90;86.56;100345.14;1650761;87;20251;-73
2021/11/22 00:21:18;;;;;;;;;;;;;;;5.87;86.55;100348.06;1650370;86;20200;-73
2021/11/22 00:23:44;;;;;;;;;;;;;;;5.82;86.57;100348.94;1651292;87;20248;-73
2021/11/22 00:26:09;;;;;;;;;;;;;;;5.79;86.52;100346.57;1616814;86;22064;-73
2021/11/22 00:28:35;;;;;;;;;;;;;;;5.73;86.50;100356.41;1619333;87;20290;-73
2021/11/22 00:31:01;;;;;;;;;;;;;;;5.64;86.50;100359.38;1652677;85;20319;-73
2021/11/22 00:33:27;;;;;;;;;;;;;;;5.57;86.48;100354.78;1652567;86;20184;-73
2021/11/22 00:35:53;;;;;;;;;;;;;;;5.50;86.49;100355.83;1652584;85;20189;-73
2021/11/22 00:38:19;;;;;;;;;;;;;;;5.46;86.48;100357.91;1652574;86;21052;-73
2021/11/22 00:40:45;;;;;;;;;;;;;;;5.41;86.47;100352.22;1652450;85;20726;-73
2021/11/22 00:43:11;;;;;;;;;;;;;;;5.37;86.48;100357.44;1652772;86;20208;-73
2021/11/22 00:45:37;;;;;;;;;;;;;;;5.31;86.50;100355.83;1652684;86;20471;-73
2021/11/22 00:48:03;;;;;;;;;;;;;;;5.27;86.49;100353.95;1652626;86;20232;-73
2021/11/22 00:50:29;;;;;;;;;;;;;;;5.25;86.50;100357.20;1652160;86;21035;-73
2021/11/22 00:52:55;;;;;;;;;;;;;;;5.25;86.49;100363.80;1652699;86;20190;-73
2021/11/22 00:55:21;;;;;;;;;;;;;;;5.23;86.49;100365.77;1652589;87;20247;-73
2021/11/22 00:57:47;;;;;;;;;;;;;;;5.18;86.47;100365.32;1630356;86;20257;-73
2021/11/22 01:00:14;;;;;;;;;;;;;;;5.12;86.49;100375.13;1652568;86;20244;-73
2021/11/22 01:02:39;;;;;;;;;;;;;;;5.03;86.53;100377.27;1662709;85;21159;-73
2021/11/22 01:05:05;;;;;;;;;;;;;;;4.95;86.55;100373.14;1670836;85;20215;-73
2021/11/22 01:07:31;;;;;;;;;;;;;;;4.90;86.54;100384.58;1659336;84;20181;-73
2021/11/22 01:09:58;;;;;;;;;;;;;;;4.85;86.54;100388.12;1661038;86;20576;-74
2021/11/22 01:12:28;;;;;;;;;;;;;;;4.80;86.50;100396.92;1666251;86;20160;-73
2021/11/22 01:14:52;;;;;;;;;;;;;;;4.70;86.52;100401.34;1661480;85;21430;-73
2021/11/22 01:17:19;;;;;;;;;;;;;;;4.66;86.52;100406.52;1652583;86;20195;-73
2021/11/22 01:19:45;;;;;;;;;;;;;;;4.63;86.51;100409.44;1652526;87;20174;-73
2021/11/22 01:22:11;;;;;;;;;;;;;;;4.58;86.48;100408.50;1652471;86;20597;-73
2021/11/22 01:24:37;;;;;;;;;;;;;;;4.58;86.47;100411.62;1666180;85;20249;-73
2021/11/22 01:27:03;;;;;;;;;;;;;;;4.57;86.46;100411.29;1654016;84;21147;-73
2021/11/22 01:29:29;;;;;;;;;;;;;;;4.58;86.43;100415.58;1650789;85;20511;-73
2021/11/22 01:31:55;;;;;;;;;;;;;;;4.61;86.40;100421.44;1672762;85;20724;-73
2021/11/22 01:34:21;;;;;;;;;;;;;;;4.66;86.40;100422.38;1661467;86;20164;-74
2021/11/22 01:36:47;;;;;;;;;;;;;;;4.70;86.40;100417.19;1656741;85;20248;-74
2021/11/22 01:39:12;;;;;;;;;;;;;;;4.71;86.39;100420.19;1663649;86;21120;-74
2021/11/22 01:41:38;;;;;;;;;;;;;;;4.72;86.40;100418.72;1655839;85;20239;-74
2021/11/22 01:44:04;;;;;;;;;;;;;;;4.73;86.40;100419.55;1660327;86;20762;-74
2021/11/22 01:46:30;;;;;;;;;;;;;;;4.73;86.41;100414.27;1666709;86;20480;-74
2021/11/22 01:48:57;;;;;;;;;;;;;;;4.74;86.44;100423.87;1664192;86;20179;-75
2021/11/22 01:51:22;;;;;;;;;;;;;;;4.73;86.45;100427.48;1667620;85;21103;-74
2021/11/22 01:53:48;;;;;;;;;;;;;;;4.75;86.48;100426.88;1672164;85;20212;-74
2021/11/22 01:56:14;;;;;;;;;;;;;;;4.75;86.48;100428.20;1654369;85;20841;-74
2021/11/22 01:58:40;;;;;;;;;;;;;;;4.77;86.49;100432.86;1662198;86;20314;-75
2021/11/22 02:01:06;;;;;;;;;;;;;;;4.79;86.50;100433.55;1655873;86;20165;-75
2021/11/22 02:03:32;;;;;;;;;;;;;;;4.82;86.52;100434.63;1659107;86;21148;-74
2021/11/22 02:05:58;;;;;;;;;;;;;;;4.85;86.53;100437.00;1660921;86;20612;-74
2021/11/22 02:08:24;;;;;;;;;;;;;;;4.86;86.53;100432.89;1661070;86;20165;-74
2021/11/22 02:10:50;;;;;;;;;;;;;;;4.87;86.54;100440.34;1661328;85;20165;-74
2021/11/22 02:13:16;;;;;;;;;;;;;;;4.87;86.57;100441.18;1661140;86;20184;-74
2021/11/22 02:15:42;;;;;;;;;;;;;;;4.87;86.56;100431.09;1664927;86;21892;-75
2021/11/22 02:18:08;;;;;;;;;;;;;;;4.86;86.57;100433.37;1666399;86;20266;-75
2021/11/22 02:20:34;;;;;;;;;;;;;;;4.85;86.60;100438.33;1666335;85;20175;-75
2021/11/22 02:23:02;;;;;;;;;;;;;;;4.80;86.60;100438.71;1666539;85;20160;-74
2021/11/22 02:25:29;;;;;;;;;;;;;;;4.78;86.63;100440.66;1662148;86;20165;-74
2021/11/22 02:27:55;;;;;;;;;;;;;;;4.75;86.65;100434.80;1662110;86;21115;-74
2021/11/22 02:30:29;;;;;;;;;;;;;;;4.69;86.67;100444.55;1652361;86;20211;-74
2021/11/22 02:32:51;;;;;;;;;;;;;;;4.71;86.69;100442.64;1650558;86;20166;-74
2021/11/22 02:35:19;;;;;;;;;;;;;;;4.72;86.72;100445.12;1650073;86;20212;-74
2021/11/22 02:37:45;;;;;;;;;;;;;;;4.70;86.72;100444.92;1650471;86;20194;-74
2021/11/22 02:40:11;;;;;;;;;;;;;;;4.69;86.73;100448.52;1650976;85;21287;-74
2021/11/22 02:42:40;;;;;;;;;;;;;;;4.67;86.76;100449.98;1655989;85;20159;-74
2021/11/22 02:45:05;;;;;;;;;;;;;;;4.67;86.75;100464.99;1683134;84;20175;-73
2021/11/22 02:47:30;;;;;;;;;;;;;;;4.67;86.75;100461.88;1661586;85;20177;-73
2021/11/22 02:49:56;;;;;;;;;;;;;;;4.68;86.76;100462.72;1651251;87;20311;-73
2021/11/22 02:52:22;;;;;;;;;;;;;;;4.71;86.78;100461.97;1649993;87;22464;-73
2021/11/22 02:54:48;;;;;;;;;;;;;;;4.74;86.81;100460.86;1649362;86;20172;-73
2021/11/22 02:57:14;;;;;;;;;;;;;;;4.75;86.82;100467.83;1649586;86;20208;-73
2021/11/22 02:59:40;;;;;;;;;;;;;;;4.77;86.84;100477.28;1649558;87;20163;-73
2021/11/22 03:02:11;;;;;;;;;;;;;;;4.75;86.84;100478.39;1650561;86;20173;-73
2021/11/22 03:04:38;;;;;;;;;;;;;;;4.74;86.84;100476.71;1619111;87;21096;-73
2021/11/22 03:07:04;;;;;;;;;;;;;;;4.76;86.84;100480.05;1619353;88;20166;-73
2021/11/22 03:09:30;;;;;;;;;;;;;;;4.77;86.86;100479.09;1620499;87;20216;-73
2021/11/22 03:11:59;;;;;;;;;;;;;;;4.78;86.86;100483.41;1619292;88;20245;-73
2021/11/22 03:14:26;;;;;;;;;;;;;;;4.79;86.87;100490.34;1622238;87;20354;-73
2021/11/22 03:16:52;;;;;;;;;;;;;;;4.79;86.88;100492.51;1625167;87;22015;-73
2021/11/22 03:19:18;;;;;;;;;;;;;;;4.80;86.89;100489.39;1601750;88;20199;-73
2021/11/22 03:21:45;;;;;;;;;;;;;;;4.80;86.89;100490.23;1638413;87;20264;-73
2021/11/22 03:24:11;;;;;;;;;;;;;;;4.81;86.90;100492.39;1629860;87;20529;-73
2021/11/22 03:26:37;;;;;;;;;;;;;;;4.81;86.89;100493.71;1645367;87;20153;-73
2021/11/22 03:29:03;;;;;;;;;;;;;;;4.83;86.91;100493.09;1645563;87;21259;-73
2021/11/22 03:31:30;;;;;;;;;;;;;;;4.85;86.92;100495.13;1645643;87;20189;-74
2021/11/22 03:33:56;;;;;;;;;;;;;;;4.85;86.92;100499.09;1645462;87;20153;-73
2021/11/22 03:36:22;;;;;;;;;;;;;;;4.87;86.93;100507.71;1641956;86;20162;-73
2021/11/22 03:38:47;;;;;;;;;;;;;;;4.90;86.92;100504.33;1612164;88;20189;-73
2021/11/22 03:41:15;;;;;;;;;;;;;;;4.88;86.92;100506.75;1610533;87;21218;-74
2021/11/22 03:43:48;;;;;;;;;;;;;;;4.85;86.92;100508.34;1610520;88;21376;-73
2021/11/22 03:46:15;;;;;;;;;;;;;;;4.84;86.92;100513.27;1610662;89;20154;-73
2021/11/22 03:48:41;;;;;;;;;;;;;;;4.81;86.94;100523.62;1610524;88;20203;-73
2021/11/22 03:51:07;;;;;;;;;;;;;;;4.80;86.94;100529.02;1610648;88;20224;-73
2021/11/22 03:53:33;;;;;;;;;;;;;;;4.75;86.96;100518.83;1610544;88;21083;-73
2021/11/22 03:55:59;;;;;;;;;;;;;;;4.75;86.96;100530.72;1610541;88;20182;-73
2021/11/22 03:58:25;;;;;;;;;;;;;;;4.74;86.97;100533.50;1610608;88;20499;-73
2021/11/22 04:00:51;;;;;;;;;;;;;;;4.73;86.98;100541.06;1610422;88;20176;-73
2021/11/22 04:03:16;;;;;;;;;;;;;;;4.70;86.98;100540.85;1610654;88;20248;-73
2021/11/22 04:05:42;;;;;;;;;;;;;;;4.74;86.97;100545.39;1610666;88;21296;-73
2021/11/22 04:08:08;;;;;;;;;;;;;;;4.78;87.00;100546.81;1610514;88;20856;-73
2021/11/22 04:10:35;;;;;;;;;;;;;;;4.79;86.99;100551.95;1610590;88;20292;-73
2021/11/22 04:13:02;;;;;;;;;;;;;;;4.79;87.00;100555.07;1610586;89;20491;-73
2021/11/22 04:15:28;;;;;;;;;;;;;;;4.75;87.03;100558.97;1610624;89;20190;-73
2021/11/22 04:17:53;;;;;;;;;;;;;;;4.73;87.05;100556.92;1610284;88;21285;-73
2021/11/22 04:20:19;;;;;;;;;;;;;;;4.72;87.02;100564.48;1610731;89;20211;-73
2021/11/22 04:22:45;;;;;;;;;;;;;;;4.69;87.03;100564.26;1610742;88;20232;-73
2021/11/22 04:25:11;;;;;;;;;;;;;;;4.68;87.02;100569.69;1608846;88;20244;-73
2021/11/22 04:27:37;;;;;;;;;;;;;;;4.65;87.02;100566.80;1592785;88;20774;-73
2021/11/22 04:30:05;;;;;;;;;;;;;;;4.66;87.01;100572.92;1582353;90;21338;-73
2021/11/22 04:32:30;;;;;;;;;;;;;;;4.68;87.04;100574.46;1582175;89;20163;-73
2021/11/22 04:34:56;;;;;;;;;;;;;;;4.68;87.02;100573.66;1582256;89;20228;-73
2021/11/22 04:37:26;;;;;;;;;;;;;;;4.67;87.02;100578.57;1582339;89;20241;-74
2021/11/22 04:39:50;;;;;;;;;;;;;;;4.67;87.04;100578.57;1582338;89;20174;-73
2021/11/22 04:42:16;;;;;;;;;;;;;;;4.67;87.03;100589.13;1582489;89;21197;-73
2021/11/22 04:44:41;;;;;;;;;;;;;;;4.70;87.04;100591.52;1582425;89;20389;-73
2021/11/22 04:47:09;;;;;;;;;;;;;;;4.72;87.04;100597.49;1582608;89;20205;-73
2021/11/22 04:49:36;;;;;;;;;;;;;;;4.71;87.04;100595.84;1582470;89;20452;-73
2021/11/22 04:52:02;;;;;;;;;;;;;;;4.71;87.06;100603.77;1582420;89;20175;-73
2021/11/22 04:54:28;;;;;;;;;;;;;;;4.70;87.05;100598.12;1582502;90;21264;-73
2021/11/22 04:56:54;;;;;;;;;;;;;;;4.72;87.06;100606.74;1582303;89;20244;-73
2021/11/22 04:59:20;;;;;;;;;;;;;;;4.69;87.06;100605.20;1582412;89;20170;-73
2021/11/22 05:01:46;;;;;;;;;;;;;;;4.70;87.06;100610.00;1582315;89;20180;-73
2021/11/22 05:04:12;;;;;;;;;;;;;;;4.68;87.06;100614.59;1582456;89;20193;-73
2021/11/22 05:06:38;;;;;;;;;;;;;;;4.67;87.06;100622.16;1582576;89;22112;-73
2021/11/22 05:09:04;;;;;;;;;;;;;;;4.64;87.07;100618.45;1582239;89;20261;-73
2021/11/22 05:11:30;;;;;;;;;;;;;;;4.65;87.08;100621.42;1582204;89;20213;-73
2021/11/22 05:13:55;;;;;;;;;;;;;;;4.66;87.08;100623.11;1582064;89;20181;-73
2021/11/22 05:16:21;;;;;;;;;;;;;;;4.66;87.08;100627.07;1582418;89;20320;-73
2021/11/22 05:18:47;;;;;;;;;;;;;;;4.66;87.09;100624.42;1582225;89;21196;-73
2021/11/22 05:21:13;;;;;;;;;;;;;;;4.65;87.08;100630.66;1582323;89;20269;-73
2021/11/22 05:23:38;;;;;;;;;;;;;;;4.65;87.10;100626.70;1582384;89;20257;-73
2021/11/22 05:26:04;;;;;;;;;;;;;;;4.67;87.11;100628.27;1586167;89;20193;-73
2021/11/22 05:28:30;;;;;;;;;;;;;;;4.69;87.10;100629.45;1596543;89;20202;-73
2021/11/22 05:30:56;;;;;;;;;;;;;;;4.68;87.10;100628.61;1590729;88;21338;-73
2021/11/22 05:33:21;;;;;;;;;;;;;;;4.69;87.12;100636.05;1578460;88;20302;-73
2021/11/22 05:35:47;;;;;;;;;;;;;;;4.66;87.14;100644.23;1567785;91;20783;-73
2021/11/22 05:38:13;;;;;;;;;;;;;;;4.63;87.14;100641.85;1567881;91;20184;-73
2021/11/22 05:40:39;;;;;;;;;;;;;;;4.62;87.14;100650.25;1567634;91;20187;-73
2021/11/22 05:43:05;;;;;;;;;;;;;;;4.64;87.14;100658.06;1569463;90;21350;-73
2021/11/22 05:45:31;;;;;;;;;;;;;;;4.65;87.14;100657.08;1567709;91;20227;-73
2021/11/22 05:47:57;;;;;;;;;;;;;;;4.65;87.14;100655.28;1567698;91;20223;-73
2021/11/22 05:50:23;;;;;;;;;;;;;;;4.67;87.14;100660.45;1567765;91;20262;-73
2021/11/22 05:52:50;;;;;;;;;;;;;;;4.68;87.16;100663.45;1568013;90;20183;-73
2021/11/22 05:55:23;;;;;;;;;;;;;;;4.68;87.15;100672.20;1567649;91;20960;-73
2021/11/22 05:57:44;;;;;;;;;;;;;;;4.68;87.14;100675.34;1585534;90;20175;-73
2021/11/22 06:00:10;;;;;;;;;;;;;;;4.69;87.16;100683.60;1592468;88;20287;-74
2021/11/22 06:02:36;;;;;;;;;;;;;;;4.68;87.14;100691.19;1592271;88;20206;-74
2021/11/22 06:05:02;;;;;;;;;;;;;;;4.62;87.13;100699.59;1592532;88;21084;-72
2021/11/22 06:07:28;;;;;;;;;;;;;;;4.57;87.15;100699.98;1588811;90;21677;-72
2021/11/22 06:09:54;;;;;;;;;;;;;;;4.53;87.13;100707.32;1567569;91;20788;-72
2021/11/22 06:12:20;;;;;;;;;;;;;;;4.51;87.14;100713.19;1568033;90;20200;-72
2021/11/22 06:14:45;;;;;;;;;;;;;;;4.48;87.14;100713.44;1567587;91;20184;-72
2021/11/22 06:17:11;;;;;;;;;;;;;;;4.45;87.12;100716.33;1568062;90;20243;-73
2021/11/22 06:19:37;;;;;;;;;;;;;;;4.42;87.14;100721.86;1567764;91;22094;-72
2021/11/22 06:22:03;;;;;;;;;;;;;;;4.41;87.15;100724.13;1567215;91;20283;-72
2021/11/22 06:24:28;;;;;;;;;;;;;;;4.40;87.16;100732.16;1566719;90;20211;-72
2021/11/22 06:26:56;;;;;;;;;;;;;;;4.36;87.16;100739.48;1598355;88;20175;-72
2021/11/22 06:29:23;;;;;;;;;;;;;;;4.32;87.15;100738.08;1598830;89;20174;-73
2021/11/22 06:31:48;;;;;;;;;;;;;;;4.31;87.16;100748.27;1601196;88;21198;-72
2021/11/22 06:34:14;;;;;;;;;;;;;;;4.29;87.14;100752.81;1600412;89;20887;-72
2021/11/22 06:36:40;;;;;;;;;;;;;;;4.28;87.16;100755.12;1600364;88;20218;-72
2021/11/22 06:39:06;;;;;;;;;;;;;;;4.25;87.18;100761.97;1603660;89;20191;-72
2021/11/22 06:41:32;;;;;;;;;;;;;;;4.24;87.20;100764.71;1603225;88;20238;-72
2021/11/22 06:43:57;;;;;;;;;;;;;;;4.23;87.21;100767.83;1591957;89;21764;-72
2021/11/22 06:46:23;;;;;;;;;;;;;;;4.23;87.21;100770.46;1590827;89;20254;-73
2021/11/22 06:48:49;;;;;;;;;;;;;;;4.22;87.23;100772.73;1590605;89;20216;-72
2021/11/22 06:51:15;;;;;;;;;;;;;;;4.22;87.25;100776.70;1601039;89;20195;-72
2021/11/22 06:53:41;;;;;;;;;;;;;;;4.23;87.27;100775.74;1600764;89;20292;-72
2021/11/22 06:56:07;;;;;;;;;;;;;;;4.25;87.28;100775.64;1600866;89;21097;-72
2021/11/22 06:58:32;;;;;;;;;;;;;;;4.27;87.27;100780.30;1600873;89;20269;-73
2021/11/22 07:00:58;;;;;;;;;;;;;;;4.30;87.30;100781.38;1600736;89;20201;-73
2021/11/22 07:03:25;;;;;;;;;;;;;;;4.31;87.30;100785.23;1600763;89;20185;-73
2021/11/22 07:05:51;;;;;;;;;;;;;;;4.33;87.33;100789.89;1600764;89;20170;-73
2021/11/22 07:08:17;;;;;;;;;;;;;;;4.35;87.34;100791.95;1600951;89;21236;-73
2021/11/22 07:10:42;;;;;;;;;;;;;;;4.37;87.35;100793.98;1600728;89;20200;-73
2021/11/22 07:13:08;;;;;;;;;;;;;;;4.37;87.38;100799.27;1600871;89;20292;-73
2021/11/22 07:15:36;;;;;;;;;;;;;;;4.41;87.38;100804.67;1600515;89;20525;-72
2021/11/22 07:18:05;;;;;;;;;;;;;;;4.42;87.39;100810.31;1600865;89;20522;-73
2021/11/22 07:20:31;;;;;;;;;;;;;;;4.44;87.39;100816.30;1600942;89;21168;-73
2021/11/22 07:22:57;;;;;;;;;;;;;;;4.45;87.43;100815.35;1600666;89;20211;-72
2021/11/22 07:25:23;;;;;;;;;;;;;;;4.46;87.44;100821.48;1600872;87;20304;-73
2021/11/22 07:27:49;;;;;;;;;;;;;;;4.46;87.45;100821.00;1600477;89;20169;-73
2021/11/22 07:30:21;;;;;;;;;;;;;;;4.48;87.46;100827.47;1600726;89;20257;-73
2021/11/22 07:32:54;;;;;;;;;;;;;;;4.50;87.45;100827.70;1600798;89;21244;-73
2021/11/22 07:35:21;;;;;;;;;;;;;;;4.51;87.45;100826.74;1599418;89;20482;-73
2021/11/22 07:37:48;;;;;;;;;;;;;;;4.54;87.47;100829.61;1600771;89;20174;-73
2021/11/22 07:40:14;;;;;;;;;;;;;;;4.56;87.48;100832.14;1600772;89;20495;-73
2021/11/22 07:42:40;;;;;;;;;;;;;;;4.58;87.49;100832.85;1600935;89;20253;-73
2021/11/22 07:45:05;;;;;;;;;;;;;;;4.61;87.48;100836.60;1600546;89;21665;-73
2021/11/22 07:47:31;;;;;;;;;;;;;;;4.64;87.51;100835.88;1600763;89;20212;-73
2021/11/22 07:49:57;;;;;;;;;;;;;;;4.64;87.50;100845.12;1600630;89;20220;-73
2021/11/22 07:52:23;;;;;;;;;;;;;;;4.68;87.52;100841.76;1600856;89;20177;-73
2021/11/22 07:54:49;;;;;;;;;;;;;;;4.70;87.53;100840.66;1600710;89;20228;-73
2021/11/22 07:57:16;;;;;;;;;;;;;;;4.72;87.54;100853.26;1600689;89;22013;-73
2021/11/22 07:59:41;;;;;;;;;;;;;;;4.75;87.53;100850.87;1600670;89;20203;-73
2021/11/22 08:02:07;;;;;;;;;;;;;;;4.75;87.54;100858.80;1603917;88;20222;-73
2021/11/22 08:04:33;;;;;;;;;;;;;;;4.78;87.54;100861.20;1614234;88;20260;-73
2021/11/22 08:07:12;;;;;;;;;;;;;;;4.80;87.55;100864.06;1601405;88;20535;-72
2021/11/22 08:09:36;;;;;;;;;;;;;;;4.84;87.56;100873.91;1595172;89;21028;-72
2021/11/22 08:14:39;;;;;;;;;;;;;;;4.83;87.57;100881.47;1603850;89;20163;-73
2021/11/22 08:17:07;;;;;;;;;;;;;;;4.85;87.56;100891.45;1601552;88;20437;-73
2021/11/22 08:19:33;;;;;;;;;;;;;;;4.86;87.59;100891.31;1611833;89;20157;-73
2021/11/22 08:21:59;;;;;;;;;;;;;;;4.86;87.59;100895.76;1603379;89;21808;-73
2021/11/22 08:24:26;;;;;;;;;;;;;;;4.87;87.59;100896.12;1612280;88;20194;-73
2021/11/22 08:26:53;;;;;;;;;;;;;;;4.86;87.56;100894.44;1599868;88;20199;-73
2021/11/22 08:29:19;;;;;;;;;;;;;;;4.88;87.57;100904.42;1605476;88;20165;-73
2021/11/22 08:31:45;;;;;;;;;;;;;;;4.89;87.57;100906.11;1601201;89;20189;-73
2021/11/22 08:34:11;;;;;;;;;;;;;;;4.90;87.56;100915.70;1606404;88;21091;-73
2021/11/22 08:36:37;;;;;;;;;;;;;;;4.90;87.56;100915.70;1596868;87;20729;-73
2021/11/22 08:39:03;;;;;;;;;;;;;;;4.89;87.56;100925.93;1593153;89;20546;-73
2021/11/22 08:41:28;;;;;;;;;;;;;;;4.91;87.57;100934.09;1596105;88;20193;-73
2021/11/22 08:43:54;;;;;;;;;;;;;;;4.94;87.56;100936.48;1599352;89;20194;-73
2021/11/22 08:46:20;;;;;;;;;;;;;;;4.99;87.56;100937.45;1597656;89;21228;-73
2021/11/22 08:48:46;;;;;;;;;;;;;;;5.05;87.56;100947.53;1598344;89;20212;-73
2021/11/22 08:51:12;;;;;;;;;;;;;;;5.10;87.54;100953.31;1602663;88;20901;-73
2021/11/22 08:53:37;;;;;;;;;;;;;;;5.16;87.54;100955.94;1621550;88;20226;-73
2021/11/22 08:56:03;;;;;;;;;;;;;;;5.21;87.55;100962.53;1604083;89;20255;-73
2021/11/22 08:58:29;;;;;;;;;;;;;;;5.21;87.54;100967.81;1597519;88;21093;-73
2021/11/22 09:00:55;;;;;;;;;;;;;;;5.20;87.51;100966.16;1596012;90;20262;-73
2021/11/22 09:03:21;;;;;;;;;;;;;;;5.22;87.51;100974.80;1601940;89;20188;-73
2021/11/22 09:05:47;;;;;;;;;;;;;;;5.21;87.47;100975.75;1609077;88;20286;-73
2021/11/22 09:08:13;;;;;;;;;;;;;;;5.24;87.46;100974.69;1597735;88;20165;-73
2021/11/22 09:10:39;;;;;;;;;;;;;;;5.26;87.46;100977.56;1600096;89;20805;-73
2021/11/22 09:13:05;;;;;;;;;;;;;;;5.30;87.45;100984.29;1600040;89;20254;-73
2021/11/22 09:15:32;;;;;;;;;;;;;;;5.34;87.44;100977.80;1575468;88;20660;-73
2021/11/22 09:17:58;;;;;;;;;;;;;;;5.42;87.45;100976.69;1568482;90;20520;-73
2021/11/22 09:20:24;;;;;;;;;;;;;;;5.45;87.41;100983.05;1568405;91;20192;-74
2021/11/22 09:22:50;;;;;;;;;;;;;;;5.51;87.38;100985.70;1568338;90;21176;-73
2021/11/22 09:25:16;;;;;;;;;;;;;;;5.49;87.36;100985.81;1569256;91;20485;-73
2021/11/22 09:27:41;;;;;;;;;;;;;;;5.47;87.33;100986.42;1569037;90;20224;-73
2021/11/22 09:30:08;;;;;;;;;;;;;;;5.41;87.28;100988.73;1569178;91;20176;-73
2021/11/22 09:32:34;;;;;;;;;;;;;;;5.38;87.25;100993.76;1569353;90;20201;-73
2021/11/22 09:35:00;;;;;;;;;;;;;;;5.39;87.20;101000.73;1569279;91;21253;-74
2021/11/22 09:37:26;;;;;;;;;;;;;;;5.40;87.16;101002.43;1569119;90;20207;-73
2021/11/22 09:39:52;;;;;;;;;;;;;;;5.41;87.11;101005.44;1569324;90;20235;-73
2021/11/22 09:42:17;;;;;;;;;;;;;;;5.46;87.07;101004.58;1569206;90;20805;-73
2021/11/22 09:44:43;;;;;;;;;;;;;;;5.52;87.04;101004.08;1569147;90;20177;-73
2021/11/22 09:47:09;;;;;;;;;;;;;;;5.58;86.99;101012.50;1569283;90;21026;-73
2021/11/22 09:49:35;;;;;;;;;;;;;;;5.60;86.97;101014.05;1569251;90;20223;-73
2021/11/22 09:52:01;;;;;;;;;;;;;;;5.61;86.93;101010.92;1569259;90;20551;-74
2021/11/22 09:54:26;;;;;;;;;;;;;;;5.63;86.93;101012.48;1569202;90;20418;-73
2021/11/22 09:56:52;;;;;;;;;;;;;;;5.66;86.85;101014.05;1575341;88;20789;-72
2021/11/22 09:59:18;;;;;;;;;;;;;;;5.63;86.81;101015.63;1604901;88;21347;-73
2021/11/22 10:01:44;;;;;;;;;;;;;;;5.64;86.77;101013.32;1626669;88;20183;-73
2021/11/22 10:04:12;;;;;;;;;;;;;;;5.70;86.74;101019.47;1618889;88;20309;-73
2021/11/22 10:06:52;;;;;;;;;;;;;;;5.74;86.70;101024.36;1600718;89;20198;-73
2021/11/22 10:09:34;;;;;;;;;;;;;;;5.79;86.65;101016.06;1600972;89;20188;-73
2021/11/22 10:12:03;;;;;;;;;;;;;;;5.81;86.56;101027.35;1600708;89;21172;-75
2021/11/22 10:14:32;;;;;;;;;;;;;;;5.77;86.49;101039.99;1600455;89;20158;-74
2021/11/22 10:16:57;;;;;;;;;;;;;;;5.74;86.42;101036.75;1600928;89;20178;-74
2021/11/22 10:19:23;;;;;;;;;;;;;;;5.68;86.35;101039.90;1600819;89;20185;-74
2021/11/22 10:21:49;;;;;;;;;;;;;;;5.64;86.30;101038.45;1600911;88;20249;-74
2021/11/22 10:24:15;;;;;;;;;;;;;;;5.60;86.23;101034.37;1600907;88;21159;-74
2021/11/22 10:26:42;;;;;;;;;;;;;;;5.53;86.18;101025.61;1595107;89;20240;-75
2021/11/22 10:29:13;;;;;;;;;;;;;;;5.57;86.14;101030.65;1578382;90;20206;-74
2021/11/22 10:31:37;;;;;;;;;;;;;;;5.67;86.12;101030.27;1589174;89;20658;-74
2021/11/22 10:34:03;;;;;;;;;;;;;;;5.76;86.09;101027.75;1589484;90;20178;-74
2021/11/22 10:36:29;;;;;;;;;;;;;;;5.87;86.03;101026.91;1588253;89;21198;-74
2021/11/22 10:38:59;;;;;;;;;;;;;;;5.96;85.93;101019.53;1572301;91;20496;-74
2021/11/22 10:41:28;;;;;;;;;;;;;;;5.94;85.85;101027.62;1579102;90;20174;-74
2021/11/22 10:43:57;;;;;;;;;;;;;;;5.84;85.77;101020.01;1572844;89;20178;-75
2021/11/22 10:46:38;;;;;;;;;;;;;;;5.72;85.71;101028.11;1588401;89;20250;-75
2021/11/22 10:49:13;;;;;;;;;;;;;;;5.68;85.70;101026.67;1586851;90;21012;-75
2021/11/22 10:51:46;;;;;;;;;;;;;;;5.69;85.62;101021.74;1587086;90;20507;-75
2021/11/22 10:54:13;;;;;;;;;;;;;;;5.74;85.51;101031.45;1588257;90;20216;-74
2021/11/22 10:56:41;;;;;;;;;;;;;;;5.79;85.43;101033.27;1588469;90;20204;-74
2021/11/22 10:59:13;;;;;;;;;;;;;;;5.83;85.36;101028.94;1621573;87;20490;-74
2021/11/22 11:01:49;;;;;;;;;;;;;;;5.87;85.28;101037.50;1623791;87;21114;-74
2021/11/22 11:04:23;;;;;;;;;;;;;;;5.79;85.14;101042.53;1613957;88;20184;-75
2021/11/22 11:06:53;;;;;;;;;;;;;;;5.73;85.01;101043.03;1609352;88;20196;-74
2021/11/22 11:09:21;;;;;;;;;;;;;;;5.67;84.95;101044.34;1610039;88;20192;-75
2021/11/22 11:11:48;;;;;;;;;;;;;;;5.63;84.86;101050.02;1614008;88;20170;-74
2021/11/22 11:14:15;;;;;;;;;;;;;;;5.53;84.77;101042.80;1609718;88;21243;-74
2021/11/22 11:16:41;;;;;;;;;;;;;;;5.49;84.70;101057.23;1613052;88;20178;-75
2021/11/22 11:19:08;;;;;;;;;;;;;;;5.53;84.67;101056.50;1608385;88;20222;-74
2021/11/22 11:21:40;;;;;;;;;;;;;;;5.62;84.64;101056.27;1617343;88;20165;-75
2021/11/22 11:24:06;;;;;;;;;;;;;;;5.69;84.54;101062.76;1618573;88;20186;-74
2021/11/22 11:26:32;;;;;;;;;;;;;;;5.83;84.44;101055.88;1619644;85;21151;-72
2021/11/22 11:28:58;;;;;;;;;;;;;;;5.96;84.35;101055.27;1632701;86;20219;-72
2021/11/22 11:31:24;;;;;;;;;;;;;;;6.05;84.22;101057.19;1629197;87;20208;-72
2021/11/22 11:33:50;;;;;;;;;;;;;;;6.09;84.11;101058.59;1629262;87;20248;-72
2021/11/22 11:36:38;;;;;;;;;;;;;;;6.06;83.99;101057.52;1629118;88;20228;-72
2021/11/22 11:39:22;;;;;;;;;;;;;;;6.02;83.90;101062.70;1630012;87;21157;-73
2021/11/22 11:42:26;;;;;;;;;;;;;;;5.99;83.79;101060.31;1628616;86;20166;-73
2021/11/22 11:45:12;;;;;;;;;;;;;;;6.04;83.71;101056.82;1629151;87;20178;-73
2021/11/22 11:48:03;;;;;;;;;;;;;;;6.11;83.53;101064.63;1629207;87;20146;-74
2021/11/22 11:50:35;;;;;;;;;;;;;;;6.20;83.36;101061.21;1629185;87;20198;-73
2021/11/22 11:53:07;;;;;;;;;;;;;;;6.26;83.22;101065.19;1629251;88;21136;-74
2021/11/22 11:55:33;;;;;;;;;;;;;;;6.26;83.10;101072.62;1615946;88;20179;-73
2021/11/22 11:58:24;;;;;;;;;;;;;;;6.27;83.03;101071.66;1629017;87;20216;-73
2021/11/22 12:00:59;;;;;;;;;;;;;;;6.28;82.95;101066.73;1629093;86;20154;-74
2021/11/22 12:03:26;;;;;;;;;;;;;;;6.36;82.82;101072.25;1629095;88;20194;-73
2021/11/22 12:05:53;;;;;;;;;;;;;;;6.40;82.65;101077.63;1629159;88;21080;-74
2021/11/22 12:08:21;;;;;;;;;;;;;;;6.39;82.45;101078.61;1628965;88;20478;-73
2021/11/22 12:10:47;;;;;;;;;;;;;;;6.32;82.28;101080.08;1629112;88;20162;-74
2021/11/22 12:13:14;;;;;;;;;;;;;;;6.24;82.11;101075.89;1628893;87;20188;-73
2021/11/22 12:15:43;;;;;;;;;;;;;;;6.21;82.00;101073.98;1629169;88;20161;-74
2021/11/22 12:18:13;;;;;;;;;;;;;;;6.15;81.87;101078.45;1629126;87;21196;-74
2021/11/22 12:20:40;;;;;;;;;;;;;;;6.00;81.71;101075.24;1629036;87;20166;-73
2021/11/22 12:23:08;;;;;;;;;;;;;;;5.92;81.60;101079.83;1629130;88;20185;-74
2021/11/22 12:25:43;;;;;;;;;;;;;;;5.91;81.51;101079.45;1628982;87;20462;-73
2021/11/22 12:28:22;;;;;;;;;;;;;;;5.94;81.40;101075.75;1639913;85;20462;-73
2021/11/22 12:31:00;;;;;;;;;;;;;;;5.97;81.27;101086.08;1649012;86;21156;-73
2021/11/22 12:33:29;;;;;;;;;;;;;;;6.02;81.11;101085.20;1649150;86;20179;-74
2021/11/22 12:36:13;;;;;;;;;;;;;;;6.05;80.98;101090.77;1649377;87;20170;-73
2021/11/22 12:38:44;;;;;;;;;;;;;;;6.08;80.89;101098.45;1649534;87;20635;-73
2021/11/22 12:41:12;;;;;;;;;;;;;;;6.08;80.80;101101.95;1649301;85;20166;-73
2021/11/22 12:43:48;;;;;;;;;;;;;;;6.07;80.71;101094.11;1649161;86;21981;-73
2021/11/22 12:46:16;;;;;;;;;;;;;;;6.02;80.64;101101.09;1649298;87;20201;-73
2021/11/22 12:48:46;;;;;;;;;;;;;;;5.97;80.58;101102.81;1649408;86;20193;-73
2021/11/22 12:51:15;;;;;;;;;;;;;;;5.92;80.49;101109.42;1645934;87;20477;-73